createdAt,value
2022-11-24T00:01:22.808Z,20.42
2022-11-24T00:03:59.760Z,27.48
2022-11-24T00:06:28.838Z,32.67
2022-11-24T00:08:56.919Z,41.78
2022-11-24T00:11:27.385Z,24.77
2022-11-24T00:13:55.132Z,25.33
2022-11-24T00:16:30.543Z,25.20
2022-11-24T00:19:00.257Z,27.38
2022-11-24T00:21:29.947Z,24.38
2022-11-24T00:23:58.056Z,30.92
2022-11-24T00:26:28.109Z,19.35
2022-11-24T00:29:00.198Z,28.02
2022-11-24T00:31:33.161Z,18.08
2022-11-24T00:34:02.994Z,22.90
2022-11-24T00:36:33.419Z,28.35
2022-11-24T00:39:04.243Z,26.50
2022-11-24T00:41:32.379Z,25.55
2022-11-24T00:44:01.166Z,25.65
2022-11-24T00:46:28.910Z,30.30
2022-11-24T00:48:56.911Z,44.55
2022-11-24T00:51:30.643Z,53.38
2022-11-24T00:53:59.598Z,89.15
2022-11-24T00:56:28.559Z,82.55
2022-11-24T00:58:56.313Z,90.55
2022-11-24T01:01:27.310Z,61.00
2022-11-24T01:03:58.342Z,39.88
2022-11-24T01:06:27.861Z,36.38
2022-11-24T01:08:56.832Z,42.25
2022-11-24T01:12:02.214Z,71.32
2022-11-24T01:14:30.520Z,48.40
2022-11-24T01:16:58.272Z,52.08
2022-11-24T01:19:25.713Z,62.42
2022-11-24T01:21:53.544Z,53.40
2022-11-24T01:24:21.225Z,40.40
2022-11-24T01:26:49.196Z,41.55
2022-11-24T01:29:17.265Z,32.50
2022-11-24T01:31:44.477Z,28.60
2022-11-24T01:34:13.343Z,45.08
2022-11-24T01:36:41.012Z,36.38
2022-11-24T01:39:08.345Z,33.65
2022-11-24T01:41:36.208Z,27.42
2022-11-24T01:44:25.199Z,30.45
2022-11-24T01:46:59.528Z,30.45
2022-11-24T01:49:45.241Z,31.55
2022-11-24T01:52:21.229Z,29.52
2022-11-24T01:54:56.820Z,30.38
2022-11-24T01:57:35.330Z,34.40
2022-11-24T02:00:11.181Z,28.58
2022-11-24T02:02:45.042Z,53.15
2022-11-24T02:05:22.055Z,41.28
2022-11-24T02:07:51.618Z,57.25
2022-11-24T02:10:19.404Z,54.97
2022-11-24T02:12:51.008Z,63.63
2022-11-24T02:15:19.866Z,59.17
2022-11-24T02:17:47.347Z,57.70
2022-11-24T02:20:15.722Z,46.25
2022-11-24T02:22:57.919Z,38.88
2022-11-24T02:25:31.401Z,44.35
2022-11-24T02:30:28.456Z,52.75
2022-11-24T02:32:55.904Z,46.70
2022-11-24T02:35:23.752Z,45.25
2022-11-24T02:37:51.335Z,34.58
2022-11-24T02:40:25.959Z,38.03
2022-11-24T02:43:09.918Z,28.38
2022-11-24T02:45:37.561Z,25.58
2022-11-24T02:48:05.093Z,27.38
2022-11-24T02:50:32.588Z,22.02
2022-11-24T02:52:59.932Z,29.17
2022-11-24T02:55:27.697Z,19.55
2022-11-24T02:57:54.958Z,26.85
2022-11-24T03:00:22.731Z,29.83
2022-11-24T03:02:50.436Z,17.35
2022-11-24T03:05:18.632Z,27.67
2022-11-24T03:07:46.057Z,23.42
2022-11-24T03:10:13.560Z,18.52
2022-11-24T03:12:41.013Z,21.15
2022-11-24T03:15:08.695Z,19.17
2022-11-24T03:17:36.338Z,20.40
2022-11-24T03:20:05.063Z,23.20
2022-11-24T03:22:33.035Z,21.70
2022-11-24T03:25:00.411Z,15.77
2022-11-24T03:27:27.719Z,16.77
2022-11-24T03:29:55.906Z,19.80
2022-11-24T03:32:23.876Z,21.20
2022-11-24T03:34:51.468Z,20.80
2022-11-24T03:37:19.111Z,13.55
2022-11-24T03:39:46.279Z,20.13
2022-11-24T03:42:13.685Z,17.70
2022-11-24T03:44:41.387Z,15.07
2022-11-24T03:47:09.503Z,15.13
2022-11-24T03:49:36.894Z,22.95
2022-11-24T03:52:08.034Z,13.77
2022-11-24T03:54:35.965Z,17.80
2022-11-24T03:57:03.296Z,14.82
2022-11-24T03:59:30.549Z,20.60
2022-11-24T04:01:58.004Z,16.95
2022-11-24T04:04:25.408Z,21.25
2022-11-24T04:06:52.773Z,21.90
2022-11-24T04:09:19.991Z,25.05
2022-11-24T04:12:06.108Z,17.85
2022-11-24T04:14:34.275Z,20.55
2022-11-24T04:17:03.333Z,23.80
2022-11-24T04:19:31.095Z,19.30
2022-11-24T04:21:58.379Z,23.13
2022-11-24T04:24:25.689Z,17.13
2022-11-24T04:26:53.164Z,21.90
2022-11-24T04:29:20.395Z,21.15
2022-11-24T04:31:47.577Z,23.25
2022-11-24T04:34:16.228Z,30.25
2022-11-24T04:36:43.496Z,29.15
2022-11-24T04:39:23.332Z,21.10
2022-11-24T04:41:53.847Z,21.55
2022-11-24T04:44:21.094Z,19.23
2022-11-24T04:46:48.692Z,19.83
2022-11-24T04:49:16.189Z,20.02
2022-11-24T04:51:43.653Z,17.25
2022-11-24T04:54:12.753Z,22.13
2022-11-24T04:56:41.250Z,23.67
2022-11-24T04:59:13.641Z,20.73
2022-11-24T05:01:50.293Z,19.10
2022-11-24T05:04:22.858Z,21.33
2022-11-24T05:06:56.407Z,19.95
2022-11-24T05:09:47.990Z,15.50
2022-11-24T05:12:15.912Z,24.75
2022-11-24T05:14:43.085Z,18.77
2022-11-24T05:17:10.539Z,19.35
2022-11-24T05:19:37.923Z,17.50
2022-11-24T05:22:05.506Z,15.68
2022-11-24T05:24:33.529Z,13.90
2022-11-24T05:27:02.565Z,20.95
2022-11-24T05:29:29.943Z,21.77
2022-11-24T05:31:57.709Z,33.00
2022-11-24T05:34:24.914Z,30.60
2022-11-24T05:36:55.346Z,43.47
2022-11-24T05:39:22.599Z,36.55
2022-11-24T05:41:50.008Z,31.20
2022-11-24T05:44:17.251Z,35.05
2022-11-24T05:46:44.499Z,28.98
2022-11-24T05:49:12.022Z,23.70
2022-11-24T05:51:39.086Z,29.73
2022-11-24T05:54:06.988Z,21.08
2022-11-24T05:56:38.089Z,34.45
2022-11-24T05:59:09.769Z,34.08
2022-11-24T06:01:38.579Z,31.38
2022-11-24T06:04:06.356Z,40.42
2022-11-24T06:06:33.677Z,27.00
2022-11-24T06:09:01.405Z,21.85
2022-11-24T06:11:28.862Z,22.25
2022-11-24T06:13:56.386Z,46.38
2022-11-24T06:16:24.006Z,40.90
2022-11-24T06:18:54.743Z,40.53
2022-11-24T06:21:22.132Z,31.73
2022-11-24T06:23:49.971Z,25.98
2022-11-24T06:26:18.634Z,22.02
2022-11-24T06:28:45.897Z,31.92
2022-11-24T06:31:13.129Z,24.98
2022-11-24T06:33:40.664Z,22.38
2022-11-24T06:36:10.466Z,33.08
2022-11-24T06:38:37.746Z,30.52
2022-11-24T06:41:12.472Z,30.15
2022-11-24T06:43:39.914Z,26.00
2022-11-24T06:46:07.378Z,19.52
2022-11-24T06:48:34.889Z,26.63
2022-11-24T06:51:04.444Z,22.10
2022-11-24T06:53:32.922Z,28.80
2022-11-24T06:56:01.512Z,22.92
2022-11-24T06:58:29.002Z,27.90
2022-11-24T07:00:56.332Z,20.13
2022-11-24T07:03:23.753Z,40.25
2022-11-24T07:05:58.049Z,28.42
2022-11-24T07:08:26.129Z,31.95
2022-11-24T07:10:53.372Z,35.00
2022-11-24T07:13:20.711Z,31.80
2022-11-24T07:15:48.185Z,32.90
2022-11-24T07:18:15.519Z,28.40
2022-11-24T07:20:43.673Z,28.10
2022-11-24T07:23:10.911Z,30.05
2022-11-24T07:25:38.086Z,29.38
2022-11-24T07:28:06.076Z,24.92
2022-11-24T07:30:33.535Z,28.48
2022-11-24T07:33:02.402Z,25.98
2022-11-24T07:35:30.855Z,32.42
2022-11-24T07:37:59.242Z,26.05
2022-11-24T07:40:28.630Z,39.33
2022-11-24T07:42:56.484Z,27.00
2022-11-24T07:45:26.600Z,24.63
2022-11-24T07:47:54.030Z,23.65
2022-11-24T07:50:21.677Z,43.33
2022-11-24T07:52:48.879Z,50.45
2022-11-24T07:55:16.413Z,23.33
2022-11-24T07:57:43.762Z,26.92
2022-11-24T08:00:12.472Z,27.33
2022-11-24T08:02:39.944Z,30.33
2022-11-24T08:05:07.537Z,30.48
2022-11-24T08:07:34.941Z,22.50
2022-11-24T08:10:02.224Z,30.30
2022-11-24T08:12:31.751Z,33.65
2022-11-24T08:14:59.033Z,42.75
2022-11-24T08:17:26.805Z,33.30
2022-11-24T08:19:54.047Z,37.05
2022-11-24T08:22:21.473Z,36.30
2022-11-24T08:24:49.989Z,28.30
2022-11-24T08:27:17.408Z,29.60
2022-11-24T08:29:44.852Z,35.53
2022-11-24T08:32:15.134Z,27.88
2022-11-24T08:34:46.175Z,29.08
2022-11-24T08:37:13.428Z,28.00
2022-11-24T08:39:40.891Z,28.10
2022-11-24T08:42:08.551Z,22.20
2022-11-24T08:44:37.167Z,17.05
2022-11-24T08:47:04.511Z,22.23
2022-11-24T08:49:31.879Z,24.60
2022-11-24T08:51:59.475Z,47.60
2022-11-24T08:54:26.875Z,29.65
2022-11-24T08:56:54.062Z,28.23
2022-11-24T08:59:21.449Z,22.80
2022-11-24T09:01:49.793Z,28.80
2022-11-24T09:04:17.321Z,24.35
2022-11-24T09:06:44.960Z,27.63
2022-11-24T09:09:12.419Z,24.02
2022-11-24T09:11:40.664Z,16.83
2022-11-24T09:14:08.221Z,23.40
2022-11-24T09:16:35.407Z,25.77
2022-11-24T09:19:05.587Z,23.35
2022-11-24T09:21:43.081Z,36.58
2022-11-24T09:24:10.982Z,27.30
2022-11-24T09:26:44.513Z,35.20
2022-11-24T09:29:15.234Z,36.88
2022-11-24T09:31:45.994Z,37.05
2022-11-24T09:34:16.689Z,34.33
2022-11-24T09:36:44.607Z,26.58
2022-11-24T09:39:12.464Z,31.90
2022-11-24T09:42:31.531Z,28.65
2022-11-24T09:45:49.358Z,33.70
2022-11-24T09:48:37.285Z,24.10
2022-11-24T09:51:06.181Z,35.63
2022-11-24T09:53:46.003Z,30.58
2022-11-24T09:56:23.387Z,28.05
2022-11-24T09:58:55.359Z,34.03
2022-11-24T10:01:36.359Z,34.05
2022-11-24T10:04:06.734Z,30.98
2022-11-24T10:06:56.509Z,24.48
2022-11-24T10:09:38.880Z,27.60
2022-11-24T10:12:31.126Z,30.35
2022-11-24T10:15:24.756Z,31.17
2022-11-24T10:18:16.785Z,43.25
2022-11-24T10:20:50.072Z,28.98
2022-11-24T10:23:39.991Z,29.90
2022-11-24T10:26:37.980Z,30.20
2022-11-24T10:29:30.362Z,29.77
2022-11-24T10:31:57.714Z,31.23
2022-11-24T10:34:34.703Z,29.00
2022-11-24T10:37:11.309Z,28.25
2022-11-24T10:40:04.979Z,28.63
2022-11-24T10:42:40.507Z,24.70
2022-11-24T10:45:14.690Z,27.05
2022-11-24T10:47:43.734Z,27.95
2022-11-24T10:50:23.978Z,36.08
2022-11-24T10:53:03.035Z,21.13
2022-11-24T10:55:55.348Z,19.48
2022-11-24T10:58:31.700Z,21.73
2022-11-24T11:01:28.154Z,23.48
2022-11-24T11:04:00.106Z,21.70
2022-11-24T11:06:30.671Z,22.30
2022-11-24T11:09:07.311Z,35.00
2022-11-24T11:11:35.793Z,21.95
2022-11-24T11:14:06.782Z,24.30
2022-11-24T11:16:35.692Z,19.73
2022-11-24T11:19:25.859Z,16.20
2022-11-24T11:22:13.327Z,15.25
2022-11-24T11:24:43.018Z,17.85
2022-11-24T11:27:26.023Z,17.85
2022-11-24T11:35:48.160Z,18.90
2022-11-24T11:38:16.268Z,17.13
2022-11-24T11:40:44.760Z,19.17
2022-11-24T11:43:31.843Z,21.90
2022-11-24T11:46:08.468Z,19.25
2022-11-24T11:48:43.699Z,16.65
2022-11-24T11:51:42.857Z,12.77
2022-11-24T11:54:18.188Z,11.88
2022-11-24T11:56:47.718Z,19.23
2022-11-24T11:59:41.857Z,17.48
2022-11-24T12:02:57.401Z,18.10
2022-11-24T12:05:44.000Z,17.45
2022-11-24T12:08:39.462Z,16.70
2022-11-24T12:11:39.932Z,22.63
2022-11-24T12:14:13.306Z,18.42
2022-11-24T12:19:22.882Z,13.77
2022-11-24T12:22:04.296Z,21.23
2022-11-24T12:24:38.766Z,15.90
2022-11-24T12:27:22.869Z,15.55
2022-11-24T12:29:57.612Z,13.02
2022-11-24T12:33:01.142Z,12.43
2022-11-24T12:35:38.808Z,11.93
2022-11-24T12:38:06.986Z,11.52
2022-11-24T12:41:39.590Z,16.65
2022-11-24T12:44:01.754Z,16.27
2022-11-24T12:46:51.278Z,22.73
2022-11-24T12:49:51.039Z,18.52
2022-11-24T12:52:30.245Z,22.13
2022-11-24T12:54:58.156Z,16.48
2022-11-24T12:57:36.536Z,16.88
2022-11-24T13:00:17.585Z,20.27
2022-11-24T13:03:11.286Z,14.93
2022-11-24T13:06:07.850Z,13.70
2022-11-24T13:08:37.329Z,14.93
2022-11-24T13:11:37.904Z,13.65
2022-11-24T13:14:18.268Z,10.73
2022-11-24T13:17:36.304Z,11.38
2022-11-24T13:20:21.469Z,19.02
2022-11-24T13:23:03.392Z,14.07
2022-11-24T13:25:33.424Z,13.27
2022-11-24T13:28:06.899Z,16.90
2022-11-24T13:30:34.342Z,16.63
2022-11-24T13:33:16.199Z,15.75
2022-11-24T13:36:02.696Z,10.43
2022-11-24T13:38:54.716Z,18.98
2022-11-24T13:41:37.422Z,14.00
2022-11-24T13:44:13.888Z,17.77
2022-11-24T13:47:05.642Z,14.52
2022-11-24T13:49:43.890Z,22.70
2022-11-24T13:52:39.546Z,12.00
2022-11-24T13:55:13.140Z,14.10
2022-11-24T13:57:43.442Z,18.85
2022-11-24T14:00:29.737Z,14.15
2022-11-24T14:03:04.321Z,15.02
2022-11-24T14:05:38.585Z,18.65
2022-11-24T14:08:16.836Z,18.55
2022-11-24T14:10:44.769Z,29.67
2022-11-24T14:13:24.121Z,20.05
2022-11-24T14:16:09.739Z,14.90
2022-11-24T14:18:39.446Z,17.65
2022-11-24T14:21:40.827Z,34.53
2022-11-24T14:24:30.576Z,27.33
2022-11-24T14:26:58.494Z,27.70
2022-11-24T14:29:28.705Z,31.15
2022-11-24T14:32:02.003Z,32.45
2022-11-24T14:36:58.844Z,30.42
2022-11-24T14:39:27.504Z,41.30
2022-11-24T14:42:18.413Z,40.85
2022-11-24T14:44:58.901Z,39.47
2022-11-24T14:47:31.206Z,30.85
2022-11-24T14:50:16.245Z,32.50
2022-11-24T14:52:46.727Z,30.10
2022-11-24T14:55:28.715Z,20.95
2022-11-24T14:58:00.428Z,22.85
2022-11-24T15:00:33.112Z,44.35
2022-11-24T15:03:00.721Z,37.80
2022-11-24T15:05:54.068Z,27.45
2022-11-24T15:08:22.914Z,28.27
2022-11-24T15:10:58.457Z,25.83
2022-11-24T15:13:26.406Z,18.40
2022-11-24T15:16:02.336Z,18.98
2022-11-24T15:18:42.326Z,24.77
2022-11-24T15:21:17.258Z,25.02
2022-11-24T15:24:16.505Z,22.70
2022-11-24T15:26:44.635Z,16.80
2022-11-24T15:29:12.948Z,18.60
2022-11-24T15:31:45.252Z,25.70
2022-11-24T15:34:17.479Z,23.52
2022-11-24T15:36:44.681Z,22.63
2022-11-24T15:39:12.204Z,21.63
2022-11-24T15:41:41.236Z,17.30
2022-11-24T15:44:09.567Z,24.70
2022-11-24T15:46:38.855Z,27.58
2022-11-24T15:49:06.976Z,22.13
2022-11-24T15:51:35.975Z,24.23
2022-11-24T15:54:03.372Z,26.83
2022-11-24T15:56:34.787Z,25.98
2022-11-24T15:59:03.208Z,28.40
2022-11-24T16:01:34.557Z,26.55
2022-11-24T16:04:02.946Z,25.77
2022-11-24T16:06:30.918Z,23.77
2022-11-24T16:08:58.496Z,24.23
2022-11-24T16:11:26.512Z,26.50
2022-11-24T16:13:54.493Z,27.33
2022-11-24T16:16:23.326Z,38.13
2022-11-24T16:18:51.628Z,38.13
2022-11-24T16:21:18.931Z,38.83
2022-11-24T16:23:46.818Z,42.28
2022-11-24T16:26:13.897Z,47.72
2022-11-24T16:28:41.287Z,41.95
2022-11-24T16:31:09.068Z,30.35
2022-11-24T16:33:40.817Z,32.55
2022-11-24T16:36:09.536Z,20.73
2022-11-24T16:38:36.917Z,26.45
2022-11-24T16:41:05.355Z,24.65
2022-11-24T16:43:35.320Z,23.23
2022-11-24T16:46:16.571Z,22.70
2022-11-24T16:48:45.839Z,22.40
2022-11-24T16:51:14.718Z,23.00
2022-11-24T16:53:43.187Z,23.58
2022-11-24T16:56:10.732Z,22.45
2022-11-24T16:58:39.659Z,23.42
2022-11-24T17:01:11.867Z,15.82
2022-11-24T17:03:40.361Z,25.30
2022-11-24T17:06:18.617Z,23.08
2022-11-24T17:08:47.203Z,19.33
2022-11-24T17:11:18.102Z,31.10
2022-11-24T17:13:47.601Z,18.65
2022-11-24T17:16:18.447Z,23.35
2022-11-24T17:18:46.818Z,20.95
2022-11-24T17:21:17.729Z,22.83
2022-11-24T17:23:57.866Z,23.60
2022-11-24T17:26:25.988Z,18.15
2022-11-24T17:28:54.314Z,18.17
2022-11-24T17:31:25.147Z,21.13
2022-11-24T17:33:57.655Z,23.85
2022-11-24T17:36:25.474Z,26.40
2022-11-24T17:38:52.994Z,18.45
2022-11-24T17:41:21.359Z,16.20
2022-11-24T17:43:50.708Z,17.70
2022-11-24T17:46:18.176Z,19.08
2022-11-24T17:48:47.526Z,17.90
2022-11-24T17:51:17.834Z,17.67
2022-11-24T17:53:49.702Z,14.60
2022-11-24T17:56:24.380Z,15.00
2022-11-24T17:58:56.180Z,17.38
2022-11-24T18:01:25.052Z,23.92
2022-11-24T18:03:53.811Z,19.77
2022-11-24T18:06:25.431Z,18.35
2022-11-24T18:08:55.071Z,20.08
2022-11-24T18:11:31.439Z,19.23
2022-11-24T18:14:02.768Z,17.20
2022-11-24T18:16:35.226Z,21.30
2022-11-24T18:19:09.377Z,19.92
2022-11-24T18:21:40.240Z,17.38
2022-11-24T18:24:12.218Z,22.45
2022-11-24T18:26:41.302Z,13.10
2022-11-24T18:29:09.660Z,15.57
2022-11-24T18:31:37.976Z,14.85
2022-11-24T18:34:06.798Z,17.67
2022-11-24T18:36:36.611Z,15.68
2022-11-24T18:39:06.963Z,18.58
2022-11-24T18:41:35.019Z,19.90
2022-11-24T18:44:03.357Z,13.05
2022-11-24T18:46:30.657Z,12.98
2022-11-24T18:49:00.639Z,19.45
2022-11-24T18:51:29.119Z,19.95
2022-11-24T18:53:58.348Z,19.38
2022-11-24T18:56:27.611Z,33.70
2022-11-24T18:58:56.332Z,27.33
2022-11-24T19:01:26.880Z,24.85
2022-11-24T19:03:56.599Z,26.50
2022-11-24T19:06:32.614Z,27.67
2022-11-24T19:09:22.126Z,29.92
2022-11-24T19:11:49.567Z,23.38
2022-11-24T19:14:18.671Z,23.75
2022-11-24T19:16:48.325Z,24.50
2022-11-24T19:19:17.417Z,21.67
2022-11-24T19:21:45.182Z,20.67
2022-11-24T19:24:16.113Z,16.45
2022-11-24T19:26:43.982Z,16.58
2022-11-24T19:29:11.907Z,20.60
2022-11-24T19:31:40.402Z,33.38
2022-11-24T19:34:08.427Z,47.25
2022-11-24T19:36:36.538Z,41.72
2022-11-24T19:39:05.538Z,73.07
2022-11-24T19:41:36.815Z,54.30
2022-11-24T19:44:08.311Z,47.35
2022-11-24T19:46:35.823Z,45.38
2022-11-24T19:49:05.047Z,42.03
2022-11-24T19:51:35.622Z,32.90
2022-11-24T19:54:05.713Z,37.22
2022-11-24T19:56:36.526Z,28.55
2022-11-24T19:59:06.532Z,31.65
2022-11-24T20:01:39.399Z,26.17
2022-11-24T20:04:09.920Z,23.98
2022-11-24T20:06:39.894Z,25.63
2022-11-24T20:09:11.047Z,25.38
2022-11-24T20:11:39.000Z,26.40
2022-11-24T20:14:07.767Z,23.90
2022-11-24T20:16:35.890Z,21.83
2022-11-24T20:19:11.009Z,21.73
2022-11-24T20:21:39.700Z,28.13
2022-11-24T20:24:13.303Z,21.08
2022-11-24T20:26:47.497Z,16.67
2022-11-24T20:29:17.483Z,32.72
2022-11-24T20:31:51.319Z,22.55
2022-11-24T20:34:20.600Z,29.40
2022-11-24T20:36:49.686Z,27.15
2022-11-24T20:39:21.395Z,24.55
2022-11-24T20:41:51.898Z,19.75
2022-11-24T20:44:22.336Z,23.75
2022-11-24T20:46:50.161Z,31.13
2022-11-24T20:49:23.807Z,35.90
2022-11-24T20:51:54.800Z,38.17
2022-11-24T20:54:23.822Z,42.20
2022-11-24T20:56:52.196Z,36.05
2022-11-24T20:59:22.635Z,39.63
2022-11-24T21:01:51.787Z,35.60
2022-11-24T21:04:22.202Z,28.40
2022-11-24T21:06:51.047Z,28.13
2022-11-24T21:09:19.234Z,30.90
2022-11-24T21:11:47.099Z,29.67
2022-11-24T21:14:14.670Z,20.40
2022-11-24T21:16:43.239Z,21.52
2022-11-24T21:19:14.368Z,24.48
2022-11-24T21:21:43.168Z,24.48
2022-11-24T21:24:14.079Z,31.17
2022-11-24T21:26:42.947Z,23.92
2022-11-24T21:29:17.607Z,26.02
2022-11-24T21:31:46.210Z,32.78
2022-11-24T21:34:16.789Z,26.70
2022-11-24T21:36:46.029Z,22.95
2022-11-24T21:39:17.291Z,32.05
2022-11-24T21:41:45.359Z,37.45
2022-11-24T21:44:14.318Z,28.08
2022-11-24T21:46:48.189Z,27.60
2022-11-24T21:49:22.737Z,29.40
2022-11-24T21:51:56.143Z,24.30
2022-11-24T21:56:54.600Z,21.08
2022-11-24T21:59:22.712Z,18.05
2022-11-24T22:01:50.248Z,26.60
2022-11-24T22:04:17.621Z,25.92
2022-11-24T22:06:46.410Z,70.57
2022-11-24T22:09:17.725Z,73.30
2022-11-24T22:11:46.193Z,63.65
2022-11-24T22:14:13.515Z,54.95
2022-11-24T22:16:46.660Z,74.45
2022-11-24T22:21:43.466Z,86.82
2022-11-24T22:24:11.685Z,69.38
2022-11-24T22:26:40.204Z,60.03
2022-11-24T22:29:08.574Z,60.70
2022-11-24T22:31:36.111Z,44.58
2022-11-24T22:34:03.592Z,41.28
2022-11-24T22:36:31.183Z,35.15
2022-11-24T22:39:06.152Z,36.88
2022-11-24T22:41:35.368Z,29.73
2022-11-24T22:44:03.101Z,32.80
2022-11-24T22:46:32.054Z,28.25
2022-11-24T22:49:01.418Z,27.98
2022-11-24T22:51:34.540Z,27.33
2022-11-24T22:54:04.644Z,24.75
2022-11-24T22:56:32.894Z,22.70
2022-11-24T22:59:01.851Z,18.58
2022-11-24T23:01:31.235Z,19.80
2022-11-24T23:03:58.937Z,19.65
2022-11-24T23:06:31.198Z,17.55
2022-11-24T23:09:00.157Z,22.30
2022-11-24T23:11:36.278Z,19.40
2022-11-24T23:14:06.952Z,21.30
2022-11-24T23:16:34.286Z,19.40
2022-11-24T23:19:01.704Z,18.25
2022-11-24T23:21:32.501Z,17.13
2022-11-24T23:24:02.709Z,19.58
2022-11-24T23:26:38.390Z,15.88
2022-11-24T23:29:06.596Z,21.02
2022-11-24T23:31:34.487Z,23.23
2022-11-24T23:34:03.764Z,16.55
2022-11-24T23:36:31.906Z,13.38
2022-11-24T23:39:07.537Z,12.10
2022-11-24T23:41:35.242Z,17.60
2022-11-24T23:44:02.778Z,17.73
2022-11-24T23:46:30.588Z,16.98
2022-11-24T23:48:58.230Z,17.63
2022-11-24T23:51:31.422Z,19.20
2022-11-24T23:54:00.170Z,15.52
2022-11-24T23:56:33.360Z,17.73
